createdAt,value
2023-03-21T00:03:30.945Z,503.00
2023-03-21T00:07:30.816Z,504.00
2023-03-21T00:11:30.753Z,504.00
2023-03-21T00:15:42.648Z,501.00
2023-03-21T00:19:31.646Z,503.00
2023-03-21T00:23:30.563Z,501.00
2023-03-21T00:27:47.550Z,500.00
2023-03-21T00:31:31.559Z,503.00
2023-03-21T00:39:31.277Z,505.00
2023-03-21T00:43:30.266Z,503.00
2023-03-21T00:47:30.454Z,503.00
2023-03-21T00:51:30.322Z,503.00
2023-03-21T00:55:30.252Z,500.00
2023-03-21T00:59:30.171Z,502.00
2023-03-21T01:03:30.328Z,503.00
2023-03-21T01:07:30.039Z,502.00
2023-03-21T01:11:29.945Z,502.00
2023-03-21T01:15:29.873Z,501.00
2023-03-21T01:19:51.943Z,503.00
2023-03-21T01:23:30.734Z,505.00
2023-03-21T01:27:30.326Z,503.00
2023-03-21T01:31:29.735Z,503.00
2023-03-21T01:35:34.459Z,503.00
2023-03-21T01:39:30.780Z,502.00
2023-03-21T01:43:29.686Z,503.00
2023-03-21T01:47:29.788Z,500.00
2023-03-21T01:51:29.933Z,503.00
2023-03-21T01:55:30.116Z,501.00
2023-03-21T01:59:30.340Z,502.00
2023-03-21T02:03:35.986Z,503.00
2023-03-21T02:07:30.872Z,504.00
2023-03-21T02:11:29.825Z,503.00
2023-03-21T02:15:29.987Z,502.00
2023-03-21T02:19:35.689Z,503.00
2023-03-21T02:23:31.356Z,504.00
2023-03-21T02:27:29.799Z,502.00
2023-03-21T02:31:30.001Z,505.00
2023-03-21T02:35:30.049Z,503.00
2023-03-21T02:39:30.197Z,502.00
2023-03-21T02:43:30.345Z,504.00
2023-03-21T02:47:30.493Z,503.00
2023-03-21T02:51:30.673Z,500.00
2023-03-21T02:55:30.840Z,503.00
2023-03-21T02:59:32.773Z,500.00
2023-03-21T03:03:34.491Z,502.00
2023-03-21T03:07:30.856Z,504.00
2023-03-21T03:11:30.778Z,502.00
2023-03-21T03:15:30.711Z,502.00
2023-03-21T03:19:34.417Z,502.00
2023-03-21T03:23:31.540Z,504.00
2023-03-21T03:27:30.459Z,500.00
2023-03-21T03:31:30.516Z,500.00
2023-03-21T03:35:30.930Z,502.00
2023-03-21T03:39:30.622Z,503.00
2023-03-21T03:43:30.879Z,502.00
2023-03-21T03:47:34.970Z,503.00
2023-03-21T03:51:31.719Z,505.00
2023-03-21T03:55:30.640Z,502.00
2023-03-21T03:59:30.549Z,502.00
2023-03-21T04:03:39.263Z,506.00
2023-03-21T04:07:31.470Z,504.00
2023-03-21T04:11:30.388Z,503.00
2023-03-21T04:15:30.906Z,504.00
2023-03-21T04:19:30.485Z,505.00
2023-03-21T04:23:30.905Z,505.00
2023-03-21T04:27:30.306Z,506.00
2023-03-21T04:31:30.254Z,506.00
2023-03-21T04:35:30.407Z,507.00
2023-03-21T04:39:30.058Z,508.00
2023-03-21T04:43:29.988Z,508.00
2023-03-21T04:47:29.901Z,507.00
2023-03-21T04:51:29.823Z,510.00
2023-03-21T04:55:29.800Z,508.00
2023-03-21T04:59:29.687Z,505.00
2023-03-21T05:03:30.320Z,509.00
2023-03-21T05:07:29.815Z,506.00
2023-03-21T05:11:29.939Z,509.00
2023-03-21T05:15:30.040Z,509.00
2023-03-21T05:19:30.132Z,506.00
2023-03-21T05:23:30.234Z,510.00
2023-03-21T05:27:30.420Z,509.00
2023-03-21T05:31:30.922Z,506.00
2023-03-21T05:35:30.541Z,500.00
2023-03-21T05:39:30.610Z,511.00
2023-03-21T05:43:31.418Z,512.00
2023-03-21T05:47:30.779Z,508.00
2023-03-21T05:51:30.906Z,498.00
2023-03-21T05:55:30.972Z,509.00
2023-03-21T05:59:31.045Z,508.00
2023-03-21T06:03:31.169Z,512.00
2023-03-21T06:07:31.250Z,512.00
2023-03-21T06:11:31.326Z,511.00
2023-03-21T06:15:31.429Z,511.00
2023-03-21T06:19:31.515Z,509.00
2023-03-21T06:23:31.753Z,507.00
2023-03-21T06:27:31.786Z,513.00
2023-03-21T06:31:31.908Z,526.00
2023-03-21T06:35:32.032Z,553.00
2023-03-21T06:39:32.446Z,576.00
2023-03-21T06:43:31.959Z,596.00
2023-03-21T06:47:32.019Z,600.00
2023-03-21T06:51:32.019Z,596.00
2023-03-21T06:55:32.061Z,591.00
2023-03-21T06:59:33.379Z,591.00
2023-03-21T07:03:32.177Z,578.00
2023-03-21T07:07:32.266Z,569.00
2023-03-21T07:11:32.345Z,562.00
2023-03-21T07:15:32.442Z,549.00
2023-03-21T07:19:32.528Z,537.00
2023-03-21T07:23:32.635Z,538.00
2023-03-21T07:27:32.698Z,529.00
2023-03-21T07:31:32.924Z,561.00
2023-03-21T07:35:33.069Z,604.00
2023-03-21T07:39:33.030Z,694.00
2023-03-21T07:43:33.039Z,818.00
2023-03-21T07:47:32.967Z,928.00
2023-03-21T07:51:32.895Z,994.00
2023-03-21T07:55:32.851Z,1056.00
2023-03-21T07:59:32.806Z,1073.00
2023-03-21T08:03:32.777Z,1033.00
2023-03-21T08:07:32.754Z,1012.00
2023-03-21T08:11:32.838Z,1179.00
2023-03-21T08:15:32.965Z,1021.00
2023-03-21T08:19:32.963Z,489.00
2023-03-21T08:23:33.014Z,426.00
2023-03-21T08:27:33.118Z,572.00
2023-03-21T08:31:33.125Z,824.00
2023-03-21T08:35:33.230Z,1029.00
2023-03-21T08:39:33.228Z,1265.00
2023-03-21T08:43:33.314Z,1439.00
2023-03-21T08:47:33.202Z,1623.00
2023-03-21T08:51:33.064Z,1791.00
2023-03-21T08:55:32.935Z,1946.00
2023-03-21T08:59:32.794Z,2123.00
2023-03-21T09:03:32.677Z,2260.00
2023-03-21T09:07:33.518Z,2379.00
2023-03-21T09:11:32.409Z,2497.00
2023-03-21T09:15:32.510Z,2372.00
2023-03-21T09:19:32.186Z,1259.00
2023-03-21T09:23:32.208Z,639.00
2023-03-21T09:27:32.038Z,864.00
2023-03-21T09:31:32.010Z,1246.00
2023-03-21T09:35:31.893Z,1348.00
2023-03-21T09:39:31.802Z,1442.00
2023-03-21T09:43:31.767Z,1491.00
2023-03-21T09:47:32.516Z,1503.00
2023-03-21T09:51:31.530Z,1562.00
2023-03-21T09:55:31.662Z,1662.00
2023-03-21T09:59:33.368Z,1766.00
2023-03-21T10:03:31.774Z,1883.00
2023-03-21T10:07:31.806Z,1967.00
2023-03-21T10:11:31.793Z,2068.00
2023-03-21T10:15:31.753Z,2122.00
2023-03-21T10:19:31.791Z,1677.00
2023-03-21T10:23:31.844Z,1334.00
2023-03-21T10:27:31.866Z,1614.00
2023-03-21T10:31:32.009Z,1776.00
2023-03-21T10:35:32.113Z,1579.00
2023-03-21T10:39:32.237Z,1575.00
2023-03-21T10:43:32.127Z,1454.00
2023-03-21T10:47:32.269Z,1448.00
2023-03-21T10:51:31.858Z,1452.00
2023-03-21T10:55:31.727Z,1464.00
2023-03-21T10:59:31.653Z,1534.00
2023-03-21T11:03:31.589Z,1523.00
2023-03-21T11:07:31.338Z,1521.00
2023-03-21T11:11:31.544Z,1345.00
2023-03-21T11:15:31.063Z,1335.00
2023-03-21T11:19:30.942Z,1338.00
2023-03-21T11:23:32.476Z,1422.00
2023-03-21T11:27:30.807Z,1472.00
2023-03-21T11:31:30.713Z,1433.00
2023-03-21T11:35:30.604Z,1398.00
2023-03-21T11:39:30.472Z,1390.00
2023-03-21T11:43:30.353Z,1418.00
2023-03-21T11:47:30.235Z,1441.00
2023-03-21T11:51:30.119Z,1436.00
2023-03-21T11:55:30.016Z,1446.00
2023-03-21T11:59:29.880Z,1439.00
2023-03-21T12:03:38.116Z,1439.00
2023-03-21T12:07:30.654Z,1451.00
2023-03-21T12:11:29.543Z,1446.00
2023-03-21T12:15:29.643Z,1436.00
2023-03-21T12:19:29.764Z,1420.00
2023-03-21T12:23:29.918Z,1430.00
2023-03-21T12:27:29.977Z,1419.00
2023-03-21T12:31:30.292Z,1407.00
2023-03-21T12:35:30.295Z,1422.00
2023-03-21T12:39:30.089Z,1407.00
2023-03-21T12:43:29.948Z,1406.00
2023-03-21T12:47:29.895Z,1395.00
2023-03-21T12:51:29.717Z,1392.00
2023-03-21T12:55:29.551Z,1377.00
2023-03-21T12:59:29.390Z,1377.00
2023-03-21T13:03:39.233Z,1367.00
2023-03-21T13:07:30.180Z,1378.00
2023-03-21T13:11:29.056Z,1364.00
2023-03-21T13:15:28.919Z,1347.00
2023-03-21T13:19:28.834Z,1360.00
2023-03-21T13:23:28.645Z,1346.00
2023-03-21T13:27:28.518Z,1324.00
2023-03-21T13:31:30.558Z,1330.00
2023-03-21T13:35:29.368Z,1330.00
2023-03-21T13:39:28.193Z,1332.00
2023-03-21T13:43:28.180Z,1312.00
2023-03-21T13:47:28.320Z,1296.00
2023-03-21T13:51:28.544Z,1294.00
2023-03-21T13:55:28.519Z,1285.00
2023-03-21T13:59:28.626Z,1289.00
2023-03-21T14:03:28.740Z,1293.00
2023-03-21T14:07:28.979Z,1269.00
2023-03-21T14:11:28.869Z,1272.00
2023-03-21T14:15:28.981Z,1260.00
2023-03-21T14:19:29.006Z,1253.00
2023-03-21T14:23:29.194Z,1260.00
2023-03-21T14:27:29.630Z,1262.00
2023-03-21T14:31:29.220Z,1248.00
2023-03-21T14:35:29.252Z,1240.00
2023-03-21T14:39:29.428Z,1232.00
2023-03-21T14:43:29.412Z,1238.00
2023-03-21T14:47:29.572Z,1240.00
2023-03-21T14:51:29.534Z,1212.00
2023-03-21T14:55:29.691Z,1211.00
2023-03-21T14:59:29.698Z,1207.00
2023-03-21T15:03:30.137Z,1204.00
2023-03-21T15:07:29.888Z,1196.00
2023-03-21T15:11:30.092Z,1188.00
2023-03-21T15:15:30.063Z,1172.00
2023-03-21T15:19:30.137Z,1167.00
2023-03-21T15:23:30.259Z,1159.00
2023-03-21T15:27:30.462Z,1164.00
2023-03-21T15:31:30.529Z,1164.00
2023-03-21T15:35:30.546Z,1149.00
2023-03-21T15:39:30.642Z,1164.00
2023-03-21T15:43:30.813Z,1153.00
2023-03-21T15:47:30.798Z,1149.00
2023-03-21T15:51:30.732Z,1135.00
2023-03-21T15:55:30.659Z,1135.00
2023-03-21T15:59:30.652Z,1139.00
2023-03-21T16:03:30.580Z,1120.00
2023-03-21T16:07:30.357Z,1121.00
2023-03-21T16:11:30.240Z,1123.00
2023-03-21T16:15:30.182Z,1113.00
2023-03-21T16:19:30.025Z,1124.00
2023-03-21T16:23:29.921Z,1123.00
2023-03-21T16:27:29.809Z,1100.00
2023-03-21T16:31:29.734Z,1105.00
2023-03-21T16:35:29.628Z,1110.00
2023-03-21T16:39:29.518Z,1091.00
2023-03-21T16:43:29.671Z,1086.00
2023-03-21T16:47:29.320Z,1089.00
2023-03-21T16:51:29.246Z,1092.00
2023-03-21T16:55:29.169Z,1093.00
2023-03-21T16:59:29.097Z,1076.00
2023-03-21T17:03:29.055Z,1070.00
2023-03-21T17:07:28.968Z,1073.00
2023-03-21T17:11:28.970Z,1069.00
2023-03-21T17:15:28.840Z,1058.00
2023-03-21T17:19:28.856Z,1050.00
2023-03-21T17:23:28.747Z,1061.00
2023-03-21T17:27:28.768Z,1043.00
2023-03-21T17:31:28.735Z,1032.00
2023-03-21T17:35:28.660Z,1032.00
2023-03-21T17:39:28.620Z,1031.00
2023-03-21T17:43:28.543Z,1041.00
2023-03-21T17:47:28.502Z,1013.00
2023-03-21T17:51:28.475Z,1026.00
2023-03-21T17:55:28.484Z,1016.00
2023-03-21T17:59:28.462Z,1025.00
2023-03-21T18:03:28.467Z,1010.00
2023-03-21T18:08:03.747Z,1005.00
2023-03-21T18:11:29.345Z,1014.00
2023-03-21T18:15:30.566Z,1003.00
2023-03-21T18:19:28.237Z,1003.00
2023-03-21T18:23:28.235Z,995.00
2023-03-21T18:27:32.565Z,994.00
2023-03-21T18:31:28.149Z,994.00
2023-03-21T18:35:28.062Z,977.00
2023-03-21T18:39:27.955Z,983.00
2023-03-21T18:44:01.078Z,980.00
2023-03-21T18:47:28.676Z,990.00
2023-03-21T18:51:27.526Z,973.00
2023-03-21T18:55:44.368Z,971.00
2023-03-21T18:59:28.312Z,971.00
2023-03-21T19:03:36.802Z,975.00
2023-03-21T19:07:28.069Z,980.00
2023-03-21T19:11:26.957Z,973.00
2023-03-21T19:15:27.149Z,974.00
2023-03-21T19:19:26.872Z,955.00
2023-03-21T19:23:39.882Z,955.00
2023-03-21T19:27:27.704Z,953.00
2023-03-21T19:31:26.633Z,939.00
2023-03-21T19:35:27.145Z,938.00
2023-03-21T19:39:26.355Z,932.00
2023-03-21T19:43:32.682Z,937.00
2023-03-21T19:47:27.128Z,939.00
2023-03-21T19:51:29.690Z,921.00
2023-03-21T19:55:25.875Z,927.00
2023-03-21T19:59:25.765Z,915.00
2023-03-21T20:03:25.727Z,881.00
2023-03-21T20:07:25.510Z,899.00
2023-03-21T20:11:25.396Z,897.00
2023-03-21T20:15:28.428Z,881.00
2023-03-21T20:19:25.213Z,878.00
2023-03-21T20:23:25.065Z,880.00
2023-03-21T20:27:24.944Z,878.00
2023-03-21T20:31:24.814Z,870.00
2023-03-21T20:35:48.004Z,859.00
2023-03-21T20:39:27.954Z,869.00
2023-03-21T20:44:14.022Z,864.00
2023-03-21T20:47:25.346Z,877.00
2023-03-21T20:55:25.277Z,856.00
2023-03-21T20:59:27.615Z,860.00
2023-03-21T21:03:24.021Z,852.00
2023-03-21T21:07:23.907Z,859.00
2023-03-21T21:15:24.781Z,851.00
2023-03-21T21:19:23.585Z,830.00
2023-03-21T21:23:25.500Z,819.00
2023-03-21T21:27:23.724Z,815.00
2023-03-21T21:31:23.874Z,828.00
2023-03-21T21:35:24.849Z,819.00
2023-03-21T21:39:24.107Z,813.00
2023-03-21T21:43:24.238Z,806.00
2023-03-21T21:47:24.132Z,808.00
2023-03-21T21:51:24.011Z,812.00
2023-03-21T21:55:23.888Z,796.00
2023-03-21T21:59:23.785Z,793.00
2023-03-21T22:03:23.659Z,760.00
2023-03-21T22:07:23.508Z,789.00
2023-03-21T22:11:23.795Z,786.00
2023-03-21T22:15:23.257Z,781.00
2023-03-21T22:19:23.135Z,774.00
2023-03-21T22:23:23.005Z,773.00
2023-03-21T22:27:23.069Z,775.00
2023-03-21T22:31:22.977Z,771.00
2023-03-21T22:35:22.903Z,772.00
2023-03-21T22:39:22.716Z,755.00
2023-03-21T22:43:22.611Z,759.00
2023-03-21T22:47:22.488Z,758.00
2023-03-21T22:51:22.377Z,756.00
2023-03-21T22:55:22.264Z,742.00
2023-03-21T22:59:22.160Z,738.00
2023-03-21T23:03:22.320Z,735.00
2023-03-21T23:07:21.996Z,732.00
2023-03-21T23:11:22.127Z,725.00
2023-03-21T23:15:22.017Z,727.00
2023-03-21T23:19:21.931Z,728.00
2023-03-21T23:23:21.826Z,724.00
2023-03-21T23:27:21.714Z,716.00
2023-03-21T23:31:21.661Z,713.00
2023-03-21T23:35:21.557Z,709.00
2023-03-21T23:39:21.398Z,709.00
2023-03-21T23:43:21.280Z,708.00
2023-03-21T23:47:21.181Z,699.00
2023-03-21T23:51:21.238Z,690.00
2023-03-21T23:55:21.118Z,686.00
2023-03-21T23:59:20.999Z,686.00
